Time;durP1;ratioP1;P1;durP2;ratioP2;P2;SDS_P1;SDS_P2;PMS_P1;PMS_P2;Temp;Humidity;BMP_temperature;BMP_pressure;BME280_temperature;BME280_humidity;BME280_pressure;Samples;Min_cycle;Max_cycle;Signal;HPM_P1;HPM_P2
2023/04/05 00:01:07;;;;;;;14.50;6.78;;;8.70;99.90;;;;;;5106259;28;20047;-58
2023/04/05 00:03:37;;;;;;;16.80;7.43;;;8.70;99.90;;;;;;5107175;28;20051;-56
2023/04/05 00:06:05;;;;;;;15.40;7.03;;;8.60;99.90;;;;;;5106621;28;20059;-57
2023/04/05 00:08:32;;;;;;;17.58;7.18;;;8.60;99.90;;;;;;5087153;28;20048;-55
2023/04/05 00:11:03;;;;;;;16.65;7.57;;;8.60;99.90;;;;;;5105457;28;20055;-56
2023/04/05 00:13:31;;;;;;;19.60;7.35;;;8.40;99.90;;;;;;5105325;28;20040;-56
2023/04/05 00:16:01;;;;;;;15.43;7.10;;;8.40;99.90;;;;;;5101781;28;20048;-57
2023/04/05 00:18:32;;;;;;;19.45;7.00;;;6.60;99.90;;;;;;5087168;28;20036;-55
2023/04/05 00:21:01;;;;;;;16.52;7.50;;;8.30;99.90;;;;;;5107551;28;20044;-56
2023/04/05 00:23:28;;;;;;;21.15;7.22;;;8.30;99.90;;;;;;5109729;28;20040;-56
2023/04/05 00:25:59;;;;;;;14.85;7.57;;;8.30;99.90;;;;;;5109563;28;20051;-56
2023/04/05 00:28:26;;;;;;;24.00;7.88;;;8.20;99.90;;;;;;5090094;28;20483;-56
2023/04/05 00:30:54;;;;;;;22.00;7.53;;;8.10;99.90;;;;;;5091414;28;20040;-55
2023/04/05 00:33:22;;;;;;;14.85;7.30;;;8.10;99.90;;;;;;5109868;28;20039;-55
2023/04/05 00:35:49;;;;;;;23.42;7.72;;;8.10;99.90;;;;;;5109682;28;20479;-56
2023/04/05 00:38:17;;;;;;;19.15;6.78;;;8.00;99.90;;;;;;5109309;28;20047;-56
2023/04/05 00:40:45;;;;;;;18.63;7.65;;;8.00;99.90;;;;;;5101323;28;20044;-55
2023/04/05 00:43:15;;;;;;;23.05;8.07;;;7.90;99.90;;;;;;5108830;28;20040;-56
2023/04/05 00:45:43;;;;;;;18.35;8.23;;;7.90;99.90;;;;;;5109732;28;20058;-55
2023/04/05 00:48:11;;;;;;;16.40;8.02;;;7.90;99.90;;;;;;5105289;28;20067;-54
2023/04/05 00:50:40;;;;;;;17.70;8.55;;;7.90;99.90;;;;;;5101452;28;20046;-56
2023/04/05 00:53:08;;;;;;;17.95;7.72;;;7.80;99.90;;;;;;5089174;28;20035;-56
2023/04/05 00:55:36;;;;;;;20.90;7.40;;;7.80;99.90;;;;;;5087832;28;20044;-56
2023/04/05 00:58:05;;;;;;;16.77;7.50;;;7.80;99.90;;;;;;5082689;28;20039;-56
2023/04/05 01:00:33;;;;;;;19.40;8.57;;;7.80;99.90;;;;;;5090735;28;20054;-54
2023/04/05 01:03:02;;;;;;;17.52;7.63;;;7.80;99.90;;;;;;5104707;28;20545;-56
2023/04/05 01:05:35;;;;;;;17.95;7.68;;;7.80;99.90;;;;;;5068549;28;20054;-55
2023/04/05 01:08:05;;;;;;;18.33;7.75;;;7.70;99.90;;;;;;5089053;28;20047;-57
2023/04/05 01:10:37;;;;;;;18.42;7.75;;;7.80;99.90;;;;;;5077129;28;20032;-57
2023/04/05 01:13:06;;;;;;;17.67;6.85;;;7.80;99.90;;;;;;5091771;28;20045;-56
2023/04/05 01:15:34;;;;;;;25.25;8.50;;;7.80;99.90;;;;;;5091008;28;20054;-56
2023/04/05 01:18:02;;;;;;;21.48;8.93;;;7.70;99.90;;;;;;5108701;28;20552;-56
2023/04/05 01:20:36;;;;;;;20.38;7.25;;;7.70;99.90;;;;;;5090339;28;20044;-56
2023/04/05 01:23:15;;;;;;;20.50;7.30;;;7.70;99.90;;;;;;5108120;28;20039;-57
2023/04/05 01:25:46;;;;;;;19.60;7.70;;;7.60;99.90;;;;;;5090396;28;20046;-57
2023/04/05 01:28:38;;;;;;;22.02;8.20;;;7.60;99.90;;;;;;5107557;28;20047;-57
2023/04/05 01:31:07;;;;;;;18.10;7.88;;;7.60;99.90;;;;;;5105236;28;20051;-56
2023/04/05 01:33:51;;;;;;;18.52;7.72;;;7.60;99.90;;;;;;5094163;28;20035;-56
2023/04/05 01:36:31;;;;;;;19.15;7.93;;;7.60;99.90;;;;;;5094053;28;20043;-58
2023/04/05 01:39:02;;;;;;;22.30;8.52;;;7.50;99.90;;;;;;5109867;28;20047;-56
2023/04/05 01:41:29;;;;;;;21.98;7.88;;;7.50;99.90;;;;;;5104499;28;20042;-58
2023/04/05 01:43:57;;;;;;;17.70;8.48;;;7.50;99.90;;;;;;5110028;28;20051;-57
2023/04/05 01:46:25;;;;;;;15.90;7.28;;;7.50;99.90;;;;;;5090206;28;20054;-56
2023/04/05 01:48:52;;;;;;;24.88;7.72;;;7.60;99.90;;;;;;5091611;28;20479;-55
2023/04/05 01:51:20;;;;;;;15.00;8.50;;;7.60;99.90;;;;;;5102403;28;20633;-55
2023/04/05 01:53:48;;;;;;;21.13;8.55;;;7.60;99.90;;;;;;5107516;28;20048;-55
2023/04/05 01:56:15;;;;;;;14.93;7.57;;;7.70;99.90;;;;;;5112165;28;20058;-57
2023/04/05 01:58:43;;;;;;;16.13;7.78;;;7.70;99.90;;;;;;5093543;28;20051;-58
2023/04/05 02:01:10;;;;;;;19.25;8.48;;;7.70;99.90;;;;;;5093073;28;20046;-57
2023/04/05 02:03:38;;;;;;;18.42;8.00;;;7.80;99.90;;;;;;5092793;28;20047;-59
2023/04/05 02:06:06;;;;;;;20.42;8.30;;;7.80;99.90;;;;;;5092720;28;20035;-56
2023/04/05 02:08:34;;;;;;;18.63;8.57;;;7.80;99.90;;;;;;5110159;28;20395;-57
2023/04/05 02:11:05;;;;;;;16.35;8.02;;;7.80;99.90;;;;;;5110610;28;20109;-56
2023/04/05 02:13:32;;;;;;;20.58;8.27;;;7.80;99.90;;;;;;5090578;28;20040;-57
2023/04/05 02:16:00;;;;;;;17.77;8.00;;;7.80;99.90;;;;;;5110918;28;20047;-57
2023/04/05 02:18:31;;;;;;;19.75;8.20;;;7.80;99.90;;;;;;5110594;28;20414;-58
2023/04/05 02:21:09;;;;;;;16.65;8.65;;;7.90;99.90;;;;;;5111857;28;20040;-58
2023/04/05 02:23:37;;;;;;;19.25;8.57;;;7.90;99.90;;;;;;5109400;28;20050;-57
2023/04/05 02:26:04;;;;;;;21.67;9.65;;;7.90;99.90;;;;;;5111535;28;20051;-57
2023/04/05 02:28:33;;;;;;;17.48;8.40;;;7.80;99.90;;;;;;5108610;28;20047;-56
2023/04/05 02:31:03;;;;;;;18.67;7.93;;;7.80;99.90;;;;;;5092960;28;20388;-57
2023/04/05 02:33:33;;;;;;;21.77;9.02;;;7.80;99.90;;;;;;5094350;28;20050;-55
2023/04/05 02:36:05;;;;;;;15.32;8.48;;;7.80;99.90;;;;;;5081825;28;20051;-58
2023/04/05 02:38:33;;;;;;;21.58;9.18;;;7.80;99.90;;;;;;5090081;28;20044;-57
2023/04/05 02:41:01;;;;;;;18.98;9.20;;;7.80;99.90;;;;;;5087069;28;20036;-56
2023/04/05 02:43:30;;;;;;;24.85;8.38;;;7.80;99.90;;;;;;5090092;28;20484;-54
2023/04/05 02:45:58;;;;;;;17.17;7.50;;;7.70;99.90;;;;;;5085840;28;20032;-56
2023/04/05 02:48:25;;;;;;;19.17;8.32;;;7.70;99.90;;;;;;5086933;28;20063;-55
2023/04/05 02:50:54;;;;;;;18.55;8.77;;;7.70;99.90;;;;;;5089768;28;20048;-55
2023/04/05 02:53:21;;;;;;;15.70;8.07;;;7.60;99.90;;;;;;5075164;28;20045;-55
2023/04/05 02:55:56;;;;;;;20.48;8.68;;;7.60;99.90;;;;;;5071733;28;20384;-55
2023/04/05 02:58:24;;;;;;;22.92;8.30;;;7.60;99.90;;;;;;5082596;28;20054;-55
2023/04/05 03:00:53;;;;;;;19.80;8.32;;;7.60;99.90;;;;;;5088811;28;20070;-55
2023/04/05 03:03:28;;;;;;;18.98;8.68;;;7.60;99.90;;;;;;5106546;28;20044;-55
2023/04/05 03:06:00;;;;;;;22.60;10.15;;;7.50;99.90;;;;;;5090435;28;20051;-56
2023/04/05 03:08:37;;;;;;;18.02;9.43;;;7.60;99.90;;;;;;5104490;28;20508;-54
2023/04/05 03:11:06;;;;;;;18.35;8.85;;;7.60;99.90;;;;;;5105953;28;20499;-55
2023/04/05 03:13:34;;;;;;;21.52;9.73;;;7.50;99.90;;;;;;5090131;28;20039;-55
2023/04/05 03:16:06;;;;;;;24.33;11.30;;;7.50;99.90;;;;;;5089215;28;20047;-55
2023/04/05 03:18:38;;;;;;;17.52;8.35;;;7.50;99.90;;;;;;5088925;28;20051;-56
2023/04/05 03:21:11;;;;;;;20.33;8.32;;;7.50;99.90;;;;;;5072826;28;20406;-56
2023/04/05 03:23:49;;;;;;;18.13;8.88;;;7.40;99.90;;;;;;5083502;28;20036;-56
2023/04/05 03:26:23;;;;;;;22.17;9.25;;;7.40;99.90;;;;;;5088386;28;20036;-55
2023/04/05 03:28:52;;;;;;;22.35;8.48;;;7.40;99.90;;;;;;5088650;28;20500;-56
2023/04/05 03:31:29;;;;;;;20.92;10.05;;;7.40;99.90;;;;;;5073197;28;20051;-54
2023/04/05 03:34:00;;;;;;;23.60;8.38;;;7.40;99.90;;;;;;5101220;28;20496;-55
2023/04/05 03:36:43;;;;;;;21.23;9.73;;;7.40;99.90;;;;;;5091338;28;20399;-55
2023/04/05 03:39:21;;;;;;;19.73;9.07;;;7.40;99.90;;;;;;5108582;28;20055;-56
2023/04/05 03:41:51;;;;;;;20.58;9.63;;;7.40;99.90;;;;;;5093204;28;20044;-55
2023/04/05 03:44:18;;;;;;;17.52;8.63;;;7.40;99.90;;;;;;5094406;28;20044;-56
2023/04/05 03:46:46;;;;;;;21.17;8.82;;;7.30;99.90;;;;;;5092580;28;20048;-56
2023/04/05 03:49:15;;;;;;;14.85;8.32;;;7.30;99.90;;;;;;5090938;28;20040;-55
2023/04/05 03:51:44;;;;;;;22.50;9.63;;;7.30;99.90;;;;;;5092334;28;20047;-57
2023/04/05 03:54:11;;;;;;;21.20;9.15;;;7.30;99.90;;;;;;5073559;28;20059;-54
2023/04/05 03:56:39;;;;;;;25.63;9.98;;;7.30;99.90;;;;;;5073390;28;20056;-56
2023/04/05 03:59:12;;;;;;;20.52;9.10;;;7.30;99.90;;;;;;5074252;28;20052;-56
2023/04/05 04:01:40;;;;;;;20.25;9.73;;;7.30;99.90;;;;;;5109342;28;20032;-56
2023/04/05 04:04:09;;;;;;;16.00;8.90;;;;;;;;;;5090641;28;20048;-57
2023/04/05 04:06:37;;;;;;;23.35;9.55;;;7.30;99.90;;;;;;5093156;28;20047;-56
2023/04/05 04:09:05;;;;;;;17.35;8.73;;;7.30;99.90;;;;;;5091437;28;20044;-57
2023/04/05 04:11:33;;;;;;;18.00;9.55;;;7.30;99.90;;;;;;5075162;28;20047;-56
2023/04/05 04:14:04;;;;;;;20.02;9.82;;;7.30;99.90;;;;;;5091449;28;20067;-58
2023/04/05 04:17:00;;;;;;;21.38;9.18;;;7.30;99.90;;;;;;5091557;28;20036;-55
2023/04/05 04:19:50;;;;;;;19.65;8.68;;;7.30;99.90;;;;;;5092648;28;20051;-55
2023/04/05 04:22:42;;;;;;;21.00;9.18;;;7.30;99.90;;;;;;5108758;28;20040;-57
2023/04/05 04:25:29;;;;;;;16.75;8.80;;;7.30;99.90;;;;;;5092537;28;20047;-56
2023/04/05 04:28:20;;;;;;;27.52;10.07;;;7.40;99.90;;;;;;5091862;28;20071;-59
2023/04/05 04:31:17;;;;;;;19.27;9.48;;;7.30;99.90;;;;;;5074220;28;20415;-57
2023/04/05 04:34:13;;;;;;;18.75;8.75;;;7.30;99.90;;;;;;5090330;28;20044;-58
2023/04/05 04:36:59;;;;;;;19.13;9.38;;;7.30;99.90;;;;;;5090500;28;20423;-57
2023/04/05 04:39:55;;;;;;;23.63;9.40;;;7.30;99.90;;;;;;5092041;28;20048;-58
2023/04/05 04:42:47;;;;;;;21.65;10.48;;;7.20;99.90;;;;;;5083771;28;20040;-58
2023/04/05 04:45:45;;;;;;;20.30;9.63;;;7.30;99.90;;;;;;5078995;28;20071;-57
2023/04/05 04:48:32;;;;;;;21.05;10.00;;;7.20;99.90;;;;;;5097475;28;20051;-57
2023/04/05 04:51:10;;;;;;;27.73;10.13;;;7.30;99.90;;;;;;5087679;28;20036;-57
2023/04/05 04:53:38;;;;;;;25.85;11.15;;;7.30;99.90;;;;;;5089207;28;20221;-57
2023/04/05 04:56:09;;;;;;;20.25;10.07;;;7.30;99.90;;;;;;5089535;28;20048;-57
2023/04/05 04:58:37;;;;;;;21.27;10.55;;;7.30;99.90;;;;;;5087814;28;20040;-58
2023/04/05 05:01:10;;;;;;;;;;;7.30;99.90;;;;;;5089784;28;20044;-57
2023/04/05 05:03:41;;;;;;;23.95;10.00;;;7.40;99.90;;;;;;5079414;28;20363;-57
2023/04/05 05:06:09;;;;;;;24.27;10.50;;;7.40;99.90;;;;;;5083505;28;20050;-56
2023/04/05 05:08:37;;;;;;;21.35;10.02;;;7.40;99.90;;;;;;5086823;28;20040;-56
2023/04/05 05:11:06;;;;;;;24.88;10.00;;;7.40;99.90;;;;;;5067443;28;20045;-57
2023/04/05 05:13:35;;;;;;;20.80;8.77;;;7.40;99.90;;;;;;5073389;28;20047;-57
2023/04/05 05:16:08;;;;;;;18.77;9.52;;;7.40;99.90;;;;;;5086883;28;20829;-56
2023/04/05 05:18:36;;;;;;;24.17;9.93;;;7.40;99.90;;;;;;5087257;28;20048;-56
2023/04/05 05:21:03;;;;;;;20.38;9.48;;;7.40;99.90;;;;;;5087211;28;20047;-57
2023/04/05 05:23:31;;;;;;;22.48;9.68;;;7.40;99.90;;;;;;5086303;28;20044;-55
2023/04/05 05:25:59;;;;;;;22.08;9.75;;;7.40;99.90;;;;;;5088920;28;20488;-55
2023/04/05 05:28:26;;;;;;;25.55;10.20;;;7.40;99.90;;;;;;5087748;28;20514;-56
2023/04/05 05:30:54;;;;;;;25.15;9.68;;;7.40;99.90;;;;;;5086115;28;20475;-55
2023/04/05 05:33:24;;;;;;;29.50;10.00;;;7.40;99.90;;;;;;5076974;28;20063;-54
2023/04/05 05:35:54;;;;;;;26.92;10.32;;;7.40;99.90;;;;;;5095442;28;20047;-55
2023/04/05 05:38:22;;;;;;;19.95;9.73;;;7.40;99.90;;;;;;5100882;28;20044;-56
2023/04/05 05:40:56;;;;;;;21.20;9.32;;;7.40;99.90;;;;;;5086084;28;20518;-56
2023/04/05 05:43:24;;;;;;;20.23;9.20;;;7.40;99.90;;;;;;5107126;28;20035;-56
2023/04/05 05:45:55;;;;;;;24.23;10.13;;;7.40;99.90;;;;;;5108798;28;20044;-56
2023/04/05 05:48:22;;;;;;;22.42;9.38;;;7.50;99.90;;;;;;5106501;28;20047;-56
2023/04/05 05:50:50;;;;;;;20.58;10.27;;;7.40;99.90;;;;;;5108544;28;20070;-56
2023/04/05 05:53:22;;;;;;;23.30;9.05;;;7.40;99.90;;;;;;5086170;28;20059;-57
2023/04/05 05:55:50;;;;;;;22.33;9.77;;;7.40;99.90;;;;;;5080180;28;20063;-55
2023/04/05 05:58:17;;;;;;;33.17;11.93;;;7.40;99.90;;;;;;5101367;28;20386;-56
2023/04/05 06:00:45;;;;;;;23.85;10.32;;;;;;;;;;5098481;28;20036;-55
2023/04/05 06:03:17;;;;;;;24.98;10.02;;;7.50;99.90;;;;;;5107782;28;20035;-58
2023/04/05 06:05:53;;;;;;;19.95;10.57;;;7.40;99.90;;;;;;5107638;28;20483;-56
2023/04/05 06:08:22;;;;;;;22.42;9.68;;;7.40;99.90;;;;;;5099849;28;20063;-55
2023/04/05 06:10:51;;;;;;;26.02;11.88;;;7.50;99.90;;;;;;5087379;28;20059;-56
2023/04/05 06:13:19;;;;;;;23.45;10.05;;;7.50;99.90;;;;;;5102393;28;20054;-55
2023/04/05 06:15:47;;;;;;;23.13;11.40;;;7.50;99.90;;;;;;5106258;28;20047;-56
2023/04/05 06:18:15;;;;;;;29.13;9.88;;;7.50;99.90;;;;;;5102580;28;20056;-56
2023/04/05 06:20:43;;;;;;;30.42;11.30;;;7.50;99.90;;;;;;5097222;28;20047;-56
2023/04/05 06:23:11;;;;;;;25.13;11.23;;;7.50;99.90;;;;;;5101175;28;20044;-55
2023/04/05 06:25:39;;;;;;;20.58;10.85;;;7.50;99.90;;;;;;5105035;28;20047;-56
2023/04/05 06:28:06;;;;;;;27.25;11.60;;;7.50;99.90;;;;;;5106364;28;20043;-57
2023/04/05 06:30:34;;;;;;;23.33;10.02;;;7.50;99.90;;;;;;5090121;28;20047;-56
2023/04/05 06:33:05;;;;;;;20.25;9.90;;;7.50;99.90;;;;;;5106387;28;20051;-55
2023/04/05 06:35:33;;;;;;;23.15;10.93;;;7.50;99.90;;;;;;5106256;28;20056;-55
2023/04/05 06:38:01;;;;;;;23.33;11.48;;;7.60;99.90;;;;;;5092903;28;20044;-56
2023/04/05 06:40:29;;;;;;;27.85;11.35;;;7.50;99.90;;;;;;5108274;28;20040;-56
2023/04/05 06:42:57;;;;;;;22.98;10.98;;;7.60;99.90;;;;;;5106838;28;20039;-56
2023/04/05 06:45:30;;;;;;;17.63;10.40;;;7.50;99.90;;;;;;5084658;28;20399;-58
2023/04/05 06:48:01;;;;;;;35.70;11.75;;;7.60;99.90;;;;;;5096390;28;20039;-56
2023/04/05 06:50:31;;;;;;;;;;;8.40;99.90;;;;;;5099175;28;20048;-56
2023/04/05 06:52:58;;;;;;;21.40;10.30;;;7.60;99.90;;;;;;5095327;28;19924;-58
2023/04/05 06:55:26;;;;;;;24.77;12.35;;;7.60;99.90;;;;;;5097319;28;20056;-58
2023/04/05 06:57:54;;;;;;;28.05;12.18;;;7.60;99.90;;;;;;5110408;28;20517;-56
2023/04/05 07:00:22;;;;;;;22.30;11.13;;;7.60;99.90;;;;;;5107776;28;20058;-56
2023/04/05 07:02:49;;;;;;;23.88;11.73;;;7.70;99.90;;;;;;5102170;28;20051;-57
2023/04/05 07:05:17;;;;;;;21.45;12.00;;;7.70;99.90;;;;;;5105852;28;20043;-56
2023/04/05 07:07:47;;;;;;;18.95;10.68;;;7.70;99.90;;;;;;5107945;28;20048;-56
2023/04/05 07:10:15;;;;;;;24.92;11.60;;;7.70;99.90;;;;;;5091450;28;20055;-54
2023/04/05 07:12:43;;;;;;;26.17;11.77;;;7.70;99.90;;;;;;5110612;28;20046;-56
2023/04/05 07:15:10;;;;;;;28.75;13.18;;;7.70;99.90;;;;;;5102864;28;20039;-55
2023/04/05 07:17:38;;;;;;;24.80;12.18;;;7.70;99.90;;;;;;5110791;28;20048;-56
2023/04/05 07:20:07;;;;;;;28.02;13.40;;;7.70;99.90;;;;;;5109931;28;20036;-58
2023/04/05 07:22:34;;;;;;;24.80;13.57;;;7.80;99.90;;;;;;5110420;28;20063;-58
2023/04/05 07:25:02;;;;;;;30.90;13.00;;;7.80;99.90;;;;;;5109052;28;20059;-56
2023/04/05 07:27:30;;;;;;;29.25;12.95;;;7.90;99.90;;;;;;5095435;28;20509;-59
2023/04/05 07:29:58;;;;;;;30.27;12.00;;;7.80;99.90;;;;;;5108865;28;20059;-58
2023/04/05 07:32:25;;;;;;;21.10;11.38;;;7.90;99.90;;;;;;5106990;28;20055;-57
2023/04/05 07:34:53;;;;;;;27.42;11.98;;;7.90;99.90;;;;;;5100840;28;20056;-55
2023/04/05 07:37:21;;;;;;;24.42;13.32;;;7.90;99.90;;;;;;5101014;28;20052;-55
2023/04/05 07:39:48;;;;;;;27.08;12.80;;;7.90;99.90;;;;;;5095170;28;20384;-57
2023/04/05 07:42:18;;;;;;;33.25;12.95;;;7.90;99.90;;;;;;5096163;28;20070;-58
2023/04/05 07:44:46;;;;;;;29.98;12.63;;;8.00;99.90;;;;;;5090842;28;20050;-55
2023/04/05 07:47:14;;;;;;;20.23;12.43;;;8.00;99.90;;;;;;5104660;27;20036;-55
2023/04/05 07:49:42;;;;;;;26.52;12.93;;;8.00;99.90;;;;;;5077588;28;20055;-57
2023/04/05 07:52:13;;;;;;;28.42;13.25;;;8.00;99.90;;;;;;5109705;27;20047;-57
2023/04/05 07:54:42;;;;;;;27.27;13.52;;;8.00;99.90;;;;;;5105763;28;20877;-55
2023/04/05 07:57:09;;;;;;;30.20;12.90;;;8.10;99.90;;;;;;5108330;28;20046;-56
2023/04/05 07:59:37;;;;;;;29.05;13.43;;;8.10;99.90;;;;;;5107309;28;20044;-55
2023/04/05 08:02:05;;;;;;;27.73;12.63;;;8.10;99.90;;;;;;5110448;28;20039;-56
2023/04/05 08:04:41;;;;;;;26.85;13.10;;;8.10;99.90;;;;;;5108409;28;20043;-54
2023/04/05 08:07:09;;;;;;;24.88;11.35;;;8.20;99.90;;;;;;5107877;28;20399;-56
2023/04/05 08:09:36;;;;;;;22.77;11.93;;;8.20;99.90;;;;;;5104637;28;20043;-55
2023/04/05 08:12:05;;;;;;;27.40;13.48;;;8.30;99.90;;;;;;5108312;28;20121;-55
2023/04/05 08:14:33;;;;;;;28.50;13.52;;;8.20;99.90;;;;;;5100110;28;20056;-56
2023/04/05 08:17:00;;;;;;;29.17;13.88;;;8.30;99.90;;;;;;5094088;28;20055;-56
2023/04/05 08:19:29;;;;;;;27.23;12.55;;;8.20;99.90;;;;;;5106980;28;20537;-55
2023/04/05 08:21:57;;;;;;;24.58;12.20;;;8.30;99.90;;;;;;5110398;28;20055;-57
2023/04/05 08:24:25;;;;;;;25.30;13.25;;;8.30;99.90;;;;;;5112076;27;20046;-57
2023/04/05 08:26:52;;;;;;;27.13;12.68;;;8.30;99.90;;;;;;5120455;27;20055;-57
2023/04/05 08:29:20;;;;;;;24.25;12.90;;;8.30;99.90;;;;;;5098737;28;20040;-56
2023/04/05 08:31:48;;;;;;;29.25;12.32;;;8.30;99.90;;;;;;5109655;28;20046;-55
2023/04/05 08:34:16;;;;;;;28.08;12.13;;;8.30;99.90;;;;;;5096496;28;20394;-56
2023/04/05 08:36:43;;;;;;;28.80;14.27;;;8.30;99.90;;;;;;5094440;28;20055;-56
2023/04/05 08:39:14;;;;;;;;;;;8.30;99.90;;;;;;5103236;28;20039;-55
2023/04/05 08:42:12;;;;;;;23.95;12.90;;;8.40;99.90;;;;;;5103716;28;19926;-55
2023/04/05 08:44:40;;;;;;;26.30;13.05;;;8.30;99.90;;;;;;5103762;28;20047;-56
2023/04/05 08:47:13;;;;;;;29.63;13.18;;;8.40;99.90;;;;;;5102834;28;20047;-56
2023/04/05 08:49:43;;;;;;;25.13;12.73;;;8.40;99.90;;;;;;5105438;28;20050;-56
2023/04/05 08:52:11;;;;;;;29.73;13.83;;;8.40;99.90;;;;;;5107516;28;20341;-55
2023/04/05 08:54:38;;;;;;;24.83;12.80;;;8.40;99.90;;;;;;5107551;28;20291;-55
2023/04/05 08:57:07;;;;;;;23.73;12.55;;;8.50;99.90;;;;;;5086936;28;20035;-56
2023/04/05 08:59:40;;;;;;;25.73;12.35;;;8.60;99.90;;;;;;5095693;28;20387;-56
2023/04/05 09:02:18;;;;;;;24.77;13.20;;;8.50;99.90;;;;;;5090295;28;20475;-55
2023/04/05 09:04:47;;;;;;;26.85;12.20;;;8.60;99.90;;;;;;5076095;28;20042;-55
2023/04/05 09:07:16;;;;;;;24.33;12.07;;;8.60;99.90;;;;;;5105748;28;20491;-55
2023/04/05 09:09:47;;;;;;;33.20;14.07;;;8.60;99.90;;;;;;5088894;28;20050;-54
2023/04/05 09:12:15;;;;;;;20.98;11.93;;;8.70;99.90;;;;;;5108585;28;20510;-55
2023/04/05 09:14:43;;;;;;;33.20;12.98;;;8.70;99.90;;;;;;5107371;28;20051;-56
2023/04/05 09:17:12;;;;;;;28.60;12.65;;;8.70;99.90;;;;;;5071886;28;20027;-54
2023/04/05 09:19:39;;;;;;;22.15;12.20;;;8.80;99.90;;;;;;5104657;28;20058;-55
2023/04/05 09:22:09;;;;;;;25.35;12.35;;;8.80;99.90;;;;;;5107690;28;20048;-55
2023/04/05 09:24:41;;;;;;;25.20;12.32;;;8.90;99.90;;;;;;5107762;28;20407;-55
2023/04/05 09:27:14;;;;;;;25.38;12.82;;;8.80;99.90;;;;;;5105105;28;20058;-56
2023/04/05 09:29:45;;;;;;;24.60;12.48;;;8.80;99.90;;;;;;5086410;28;20036;-57
2023/04/05 09:32:15;;;;;;;27.02;13.55;;;8.90;99.90;;;;;;5105898;28;20039;-55
2023/04/05 09:34:43;;;;;;;24.75;12.38;;;8.90;99.90;;;;;;5103852;28;20062;-56
2023/04/05 09:37:26;;;;;;;24.70;12.32;;;8.90;99.90;;;;;;5088634;28;20047;-56
2023/04/05 09:40:02;;;;;;;23.55;13.15;;;9.00;99.90;;;;;;5088718;28;20620;-57
2023/04/05 09:42:42;;;;;;;24.17;12.38;;;9.00;99.90;;;;;;5099865;28;20438;-57
2023/04/05 09:45:10;;;;;;;24.42;12.68;;;9.10;99.90;;;;;;5105034;28;20383;-55
2023/04/05 09:47:59;;;;;;;22.05;11.10;;;9.10;99.90;;;;;;5091671;28;20735;-56
2023/04/05 09:50:27;;;;;;;22.17;11.50;;;9.10;99.90;;;;;;5102408;28;20050;-57
2023/04/05 09:53:17;;;;;;;24.17;12.27;;;9.20;99.90;;;;;;5082308;28;20487;-55
2023/04/05 09:55:48;;;;;;;25.80;13.05;;;9.20;99.90;;;;;;5081547;28;20048;-58
2023/04/05 09:58:20;;;;;;;26.17;12.00;;;9.20;99.90;;;;;;5102703;28;20479;-56
2023/04/05 10:00:52;;;;;;;26.00;12.23;;;9.20;99.90;;;;;;5102520;28;20051;-57
2023/04/05 10:03:46;;;;;;;25.50;13.45;;;9.30;99.90;;;;;;5099878;28;20043;-55
2023/04/05 10:06:15;;;;;;;30.95;13.43;;;9.30;99.90;;;;;;5107329;28;20047;-56
2023/04/05 10:08:46;;;;;;;24.45;13.27;;;9.30;99.90;;;;;;5087509;28;21673;-57
2023/04/05 10:11:17;;;;;;;29.05;12.90;;;9.30;99.90;;;;;;5075388;28;20046;-57
2023/04/05 10:13:45;;;;;;;26.67;12.30;;;9.30;99.90;;;;;;5105147;28;20039;-56
2023/04/05 10:16:20;;;;;;;25.45;13.65;;;9.30;99.90;;;;;;5106651;28;20050;-56
2023/04/05 10:18:51;;;;;;;25.15;13.13;;;9.30;99.90;;;;;;5104213;28;20514;-56
2023/04/05 10:21:26;;;;;;;19.45;10.68;;;9.30;99.90;;;;;;5107029;28;20036;-56
2023/04/05 10:24:05;;;;;;;27.42;12.23;;;9.30;99.90;;;;;;5104085;28;20058;-55
2023/04/05 10:27:16;;;;;;;28.13;13.18;;;9.40;99.90;;;;;;5104360;28;20131;-57
2023/04/05 10:30:03;;;;;;;28.08;13.38;;;9.50;99.90;;;;;;5065907;28;20040;-56
2023/04/05 10:32:58;;;;;;;24.65;11.98;;;9.50;99.90;;;;;;5105008;28;20051;-56
2023/04/05 10:36:02;;;;;;;22.70;11.93;;;9.60;99.90;;;;;;5099973;28;20047;-56
2023/04/05 10:38:42;;;;;;;20.80;12.23;;;9.60;99.90;;;;;;5111940;28;20062;-55
2023/04/05 10:41:15;;;;;;;26.15;13.20;;;9.70;99.90;;;;;;5112035;28;20402;-55
2023/04/05 10:43:44;;;;;;;22.38;12.25;;;9.70;99.90;;;;;;5112396;28;20501;-56
2023/04/05 10:46:19;;;;;;;24.43;12.53;;;9.80;99.90;;;;;;5111947;28;20052;-56
2023/04/05 10:49:06;;;;;;;21.92;12.30;;;9.90;99.90;;;;;;5103647;28;20300;-57
2023/04/05 10:51:35;;;;;;;23.95;11.20;;;9.90;99.90;;;;;;5103796;28;20493;-55
2023/04/05 10:54:06;;;;;;;28.33;12.77;;;9.90;99.90;;;;;;5111713;28;20639;-57
2023/04/05 10:56:35;;;;;;;24.92;12.68;;;10.00;99.90;;;;;;5099363;28;20051;-56
2023/04/05 10:59:04;;;;;;;20.35;11.35;;;10.00;99.90;;;;;;5099098;27;20043;-55
2023/04/05 11:01:32;;;;;;;21.38;11.63;;;10.00;99.90;;;;;;5092820;28;20057;-54
2023/04/05 11:04:13;;;;;;;21.80;11.73;;;10.00;99.90;;;;;;5110611;28;20044;-56
2023/04/05 11:06:42;;;;;;;19.40;11.43;;;10.10;99.90;;;;;;5107045;28;20047;-56
2023/04/05 11:09:14;;;;;;;24.15;11.98;;;10.10;99.90;;;;;;5098142;28;20036;-56
2023/04/05 11:11:49;;;;;;;21.50;11.60;;;10.20;99.90;;;;;;5112197;28;20506;-54
2023/04/05 11:14:36;;;;;;;21.05;10.52;;;10.20;99.90;;;;;;5110876;28;20054;-56
2023/04/05 11:17:22;;;;;;;25.75;13.38;;;10.20;99.90;;;;;;5111123;28;20039;-56
2023/04/05 11:19:52;;;;;;;27.13;14.13;;;10.20;99.90;;;;;;5109473;28;20494;-56
2023/04/05 11:22:28;;;;;;;23.95;13.18;;;10.20;99.90;;;;;;5110370;28;20055;-56
2023/04/05 11:25:00;;;;;;;15.82;11.20;;;10.30;99.90;;;;;;5098656;28;20044;-56
2023/04/05 11:27:32;;;;;;;17.75;10.95;;;10.30;99.90;;;;;;5093403;28;20059;-56
2023/04/05 11:30:03;;;;;;;24.50;11.73;;;10.30;99.90;;;;;;5085617;28;20059;-55
2023/04/05 11:32:40;;;;;;;20.73;11.25;;;10.30;99.90;;;;;;5093858;28;20052;-56
2023/04/05 11:35:14;;;;;;;17.83;11.45;;;10.20;99.90;;;;;;5107959;28;20036;-55
2023/04/05 11:38:07;;;;;;;22.98;12.25;;;10.20;99.90;;;;;;5089186;28;20051;-57
2023/04/05 11:40:38;;;;;;;18.80;10.73;;;10.20;99.90;;;;;;5109557;28;20532;-55
2023/04/05 11:43:11;;;;;;;18.00;11.63;;;10.10;99.90;;;;;;5099605;28;20039;-56
2023/04/05 11:45:42;;;;;;;18.58;10.10;;;10.10;99.90;;;;;;5108230;28;20101;-57
2023/04/05 11:48:14;;;;;;;20.95;10.88;;;10.10;99.90;;;;;;5102060;28;20058;-56
2023/04/05 11:50:42;;;;;;;17.00;10.68;;;10.00;99.90;;;;;;5111095;28;20055;-57
2023/04/05 11:53:10;;;;;;;21.17;11.48;;;10.00;99.90;;;;;;5108030;28;20059;-56
2023/04/05 11:55:42;;;;;;;24.00;12.65;;;9.90;99.90;;;;;;5093196;28;20055;-55
2023/04/05 11:58:22;;;;;;;30.83;15.75;;;9.90;99.90;;;;;;5110901;28;20133;-55
2023/04/05 12:01:01;;;;;;;21.38;12.68;;;9.90;99.90;;;;;;5084460;28;20047;-56
2023/04/05 12:03:30;;;;;;;38.22;18.92;;;9.90;99.90;;;;;;5101368;28;20522;-55
2023/04/05 12:06:00;;;;;;;22.90;13.70;;;9.90;99.90;;;;;;5090479;28;20036;-55
2023/04/05 12:08:38;;;;;;;20.35;11.48;;;9.90;99.90;;;;;;5096698;28;20047;-55
2023/04/05 12:11:08;;;;;;;22.15;12.65;;;9.80;99.90;;;;;;5110512;28;20383;-56
2023/04/05 12:13:36;;;;;;;21.02;12.05;;;9.80;99.90;;;;;;5110301;28;20514;-55
2023/04/05 12:16:06;;;;;;;24.40;13.52;;;9.80;99.90;;;;;;5110256;28;20419;-56
2023/04/05 12:18:34;;;;;;;;;;;9.80;99.90;;;;;;5110793;28;20055;-56
2023/04/05 12:21:04;;;;;;;21.40;12.43;;;9.80;99.90;;;;;;5110693;28;19927;-56
2023/04/05 12:23:35;;;;;;;21.08;11.73;;;9.90;99.90;;;;;;5106836;28;20050;-57
2023/04/05 12:26:06;;;;;;;26.50;14.38;;;9.90;99.90;;;;;;5072231;28;20403;-58
2023/04/05 12:28:57;;;;;;;22.65;13.13;;;9.90;99.90;;;;;;5083032;28;20070;-59
2023/04/05 12:31:45;;;;;;;26.02;13.05;;;10.00;99.90;;;;;;5109905;28;20048;-59
2023/04/05 12:34:14;;;;;;;25.65;12.50;;;10.00;99.90;;;;;;5109985;28;20050;-58
2023/04/05 12:36:45;;;;;;;25.10;14.20;;;10.00;99.90;;;;;;5110323;28;20056;-58
2023/04/05 12:39:16;;;;;;;21.25;11.77;;;10.00;99.90;;;;;;5106961;28;20398;-58
2023/04/05 12:41:43;;;;;;;24.95;13.55;;;10.00;99.90;;;;;;5091648;28;20044;-58
2023/04/05 12:44:14;;;;;;;24.10;13.30;;;10.00;99.90;;;;;;5104608;28;20059;-54
2023/04/05 12:46:46;;;;;;;23.77;14.05;;;10.00;99.90;;;;;;5105710;28;20543;-55
2023/04/05 12:49:16;;;;;;;25.02;12.38;;;10.00;99.90;;;;;;5108478;28;20050;-56
2023/04/05 12:51:45;;;;;;;20.35;11.05;;;10.10;99.90;;;;;;5086349;28;20086;-57
2023/04/05 12:54:20;;;;;;;19.92;10.95;;;10.00;99.90;;;;;;5099048;28;20031;-56
2023/04/05 12:56:53;;;;;;;20.90;11.25;;;10.00;99.90;;;;;;5102991;28;20054;-56
2023/04/05 12:59:22;;;;;;;23.83;13.43;;;10.00;99.90;;;;;;5089449;28;20040;-55
2023/04/05 13:01:50;;;;;;;20.20;13.00;;;10.00;99.90;;;;;;5104963;28;20048;-56
2023/04/05 13:04:18;;;;;;;22.50;12.55;;;10.00;99.90;;;;;;5109728;28;20050;-55